Time;durP1;ratioP1;P1;durP2;ratioP2;P2;SDS_P1;SDS_P2;PMS_P1;PMS_P2;Temp;Humidity;BMP_temperature;BMP_pressure;BME280_temperature;BME280_humidity;BME280_pressure;Samples;Min_cycle;Max_cycle;Signal;HPM_P1;HPM_P2
2021/12/06 00:01:09;;;;;;;61.45;29.75;;;;;;;;;;5073510;27;95405;-72
2021/12/06 00:03:47;;;;;;;58.83;29.08;;;;;;;;;;5070656;27;96815;-72
2021/12/06 00:06:15;;;;;;;56.83;27.85;;;;;;;;;;5069992;27;95434;-72
2021/12/06 00:08:42;;;;;;;55.42;27.73;;;;;;;;;;5069942;27;97622;-72
2021/12/06 00:11:09;;;;;;;50.95;27.42;;;;;;;;;;5070256;27;97901;-72
2021/12/06 00:13:37;;;;;;;60.75;28.92;;;;;;;;;;5070692;27;95428;-72
2021/12/06 00:16:07;;;;;;;61.33;28.23;;;;;;;;;;5070867;27;97245;-72
2021/12/06 00:18:34;;;;;;;54.75;27.98;;;;;;;;;;5072587;27;97708;-72
2021/12/06 00:21:01;;;;;;;57.30;28.45;;;;;;;;;;5073506;27;95283;-72
2021/12/06 00:23:28;;;;;;;60.70;28.15;;;;;;;;;;5076362;27;97489;-72
2021/12/06 00:25:55;;;;;;;64.68;29.63;;;;;;;;;;5074563;27;95353;-72
2021/12/06 00:28:23;;;;;;;64.57;29.80;;;;;;;;;;5073694;27;97394;-72
2021/12/06 00:30:50;;;;;;;58.20;28.45;;;;;;;;;;5073583;27;99121;-72
2021/12/06 00:33:16;;;;;;;59.67;27.55;;;;;;;;;;5073841;27;95515;-72
2021/12/06 00:35:43;;;;;;;60.30;29.10;;;;;;;;;;5073531;27;97420;-72
2021/12/06 00:38:10;;;;;;;66.55;29.70;;;;;;;;;;5073472;27;98171;-71
2021/12/06 00:40:39;;;;;;;67.10;30.00;;;;;;;;;;5074050;27;95100;-72
2021/12/06 00:43:06;;;;;;;70.70;30.73;;;;;;;;;;5072768;27;96375;-72
2021/12/06 00:45:32;;;;;;;62.88;31.02;;;;;;;;;;5077352;27;97859;-72
2021/12/06 00:47:59;;;;;;;64.75;30.00;;;;;;;;;;5073288;27;97511;-71
2021/12/06 00:50:27;;;;;;;67.70;30.58;;;;;;;;;;5072807;27;97720;-71
2021/12/06 00:52:54;;;;;;;64.63;31.05;;;;;;;;;;5066745;27;95467;-71
2021/12/06 00:55:22;;;;;;;74.75;31.35;;;;;;;;;;5073763;27;97116;-71
2021/12/06 00:57:52;;;;;;;68.10;30.40;;;;;;;;;;5071404;27;97962;-71
2021/12/06 01:00:20;;;;;;;63.75;29.83;;;;;;;;;;5073873;27;95235;-71
2021/12/06 01:02:47;;;;;;;69.50;30.10;;;;;;;;;;5073259;27;97435;-72
2021/12/06 01:05:14;;;;;;;60.10;28.60;;;;;;;;;;5072864;27;97693;-73
2021/12/06 01:07:41;;;;;;;64.50;29.20;;;;;;;;;;5076191;27;95294;-72
2021/12/06 01:10:07;;;;;;;67.05;29.67;;;;;;;;;;5073595;27;97803;-72
2021/12/06 01:12:34;;;;;;;69.25;30.38;;;;;;;;;;5071974;27;95390;-72
2021/12/06 01:15:00;;;;;;;70.95;32.40;;;;;;;;;;5073642;27;97400;-72
2021/12/06 01:17:27;;;;;;;73.82;31.88;;;;;;;;;;5072552;27;97902;-72
2021/12/06 01:19:54;;;;;;;72.93;31.10;;;;;;;;;;5072860;27;95281;-73
2021/12/06 01:22:40;;;;;;;73.93;30.40;;;;;;;;;;5073074;27;97650;-72
2021/12/06 01:25:18;;;;;;;65.15;30.27;;;;;;;;;;5072184;27;98009;-72
2021/12/06 01:41:08;;;;;;;76.07;31.35;;;;;;;;;;5071594;27;95124;-72
2021/12/06 01:43:34;;;;;;;75.07;31.85;;;;;;;;;;5072216;27;97252;-72
2021/12/06 01:46:01;;;;;;;86.00;31.85;;;;;;;;;;5072776;27;97589;-72
2021/12/06 01:48:29;;;;;;;74.85;31.23;;;;;;;;;;5072450;27;96479;-72
2021/12/06 01:50:55;;;;;;;78.88;32.38;;;;;;;;;;5072965;27;97567;-72
2021/12/06 01:53:21;;;;;;;78.30;32.53;;;;;;;;;;5073934;27;95457;-72
2021/12/06 01:55:48;;;;;;;77.60;32.78;;;;;;;;;;5072341;27;96820;-72
2021/12/06 01:58:14;;;;;;;71.88;31.00;;;;;;;;;;5072510;27;97288;-72
2021/12/06 02:00:44;;;;;;;74.80;33.00;;;;;;;;;;5072140;27;95221;-72
2021/12/06 02:03:11;;;;;;;80.45;33.50;;;;;;;;;;5072725;27;97156;-72
2021/12/06 02:05:38;;;;;;;81.45;33.13;;;;;;;;;;5072200;27;97711;-71
2021/12/06 02:08:05;;;;;;;84.03;33.90;;;;;;;;;;5071865;27;95535;-72
2021/12/06 02:10:32;;;;;;;74.47;32.42;;;;;;;;;;5072951;27;99517;-72
2021/12/06 02:12:58;;;;;;;84.70;32.95;;;;;;;;;;5075159;27;97804;-72
2021/12/06 02:18:13;;;;;;;80.18;32.05;;;;;;;;;;5071200;27;97656;-71
2021/12/06 02:20:47;;;;;;;82.97;31.75;;;;;;;;;;5054015;27;96430;-71
2021/12/06 02:23:14;;;;;;;80.07;32.30;;;;;;;;;;5071865;27;97882;-72
2021/12/06 02:25:40;;;;;;;81.90;33.53;;;;;;;;;;5071920;27;98010;-72
2021/12/06 02:28:07;;;;;;;87.40;33.13;;;;;;;;;;5071243;27;95300;-72
2021/12/06 02:30:33;;;;;;;76.72;32.28;;;;;;;;;;5072020;27;97176;-72
2021/12/06 02:33:00;;;;;;;88.72;32.65;;;;;;;;;;5072243;27;97285;-72
2021/12/06 02:35:27;;;;;;;77.22;31.48;;;;;;;;;;5073868;27;95487;-72
2021/12/06 02:37:54;;;;;;;81.18;32.97;;;;;;;;;;5072018;27;97889;-72
2021/12/06 02:40:23;;;;;;;85.95;32.42;;;;;;;;;;5070556;27;96797;-72
2021/12/06 02:42:50;;;;;;;84.00;33.63;;;;;;;;;;5071583;27;97341;-72
2021/12/06 02:45:18;;;;;;;83.03;32.05;;;;;;;;;;5071897;27;97689;-72
2021/12/06 02:47:46;;;;;;;84.80;32.53;;;;;;;;;;5071977;27;95413;-72
2021/12/06 02:50:13;;;;;;;80.05;31.88;;;;;;;;;;5052444;27;97192;-72
2021/12/06 02:52:40;;;;;;;80.05;32.58;;;;;;;;;;5070468;27;97956;-72
2021/12/06 02:55:23;;;;;;;71.65;29.77;;;;;;;;;;5071278;27;95328;-72
2021/12/06 02:57:54;;;;;;;91.80;32.53;;;;;;;;;;5074208;27;97402;-72
2021/12/06 03:00:22;;;;;;;78.27;31.40;;;;;;;;;;5071022;27;95068;-72
2021/12/06 03:02:48;;;;;;;78.25;32.35;;;;;;;;;;5071447;27;97429;-72
2021/12/06 03:05:15;;;;;;;79.13;31.08;;;;;;;;;;5071198;27;96740;-72
2021/12/06 03:07:41;;;;;;;82.53;32.08;;;;;;;;;;5071784;27;95362;-71
2021/12/06 03:10:09;;;;;;;78.22;29.85;;;;;;;;;;5071401;27;98498;-71
2021/12/06 03:12:35;;;;;;;78.13;30.48;;;;;;;;;;5070498;27;98042;-71
2021/12/06 03:15:03;;;;;;;76.22;30.92;;;;;;;;;;5070947;27;95184;-73
2021/12/06 03:17:31;;;;;;;82.72;33.08;;;;;;;;;;5071408;27;96805;-73
2021/12/06 03:19:58;;;;;;;80.95;31.67;;;;;;;;;;5074719;27;97385;-72
2021/12/06 03:22:25;;;;;;;86.43;32.08;;;;;;;;;;5070391;27;96905;-73
2021/12/06 03:24:51;;;;;;;79.75;31.48;;;;;;;;;;5070931;27;98858;-73
2021/12/06 03:27:18;;;;;;;79.53;31.83;;;;;;;;;;5071121;27;95116;-73
2021/12/06 03:29:45;;;;;;;80.13;31.30;;;;;;;;;;5052899;27;97522;-73
2021/12/06 03:32:12;;;;;;;76.03;30.15;;;;;;;;;;5070388;27;97785;-73
2021/12/06 03:34:39;;;;;;;82.15;31.05;;;;;;;;;;5070904;27;95283;-73
2021/12/06 03:37:06;;;;;;;82.18;31.83;;;;;;;;;;5071607;27;95793;-73
2021/12/06 03:39:38;;;;;;;87.28;32.05;;;;;;;;;;5070592;27;97263;-73
2021/12/06 03:42:10;;;;;;;82.80;31.33;;;;;;;;;;5073887;27;95287;-72
2021/12/06 03:44:36;;;;;;;69.15;28.67;;;;;;;;;;5070286;27;98050;-73
2021/12/06 03:47:04;;;;;;;80.30;29.45;;;;;;;;;;5071307;27;95541;-73
2021/12/06 03:49:31;;;;;;;79.38;28.88;;;;;;;;;;5071185;27;96783;-73
2021/12/06 03:51:58;;;;;;;71.68;30.77;;;;;;;;;;5070151;27;97041;-73
2021/12/06 03:54:25;;;;;;;77.03;29.13;;;;;;;;;;5073540;27;95473;-72
2021/12/06 03:56:52;;;;;;;85.75;31.08;;;;;;;;;;5075321;27;97222;-73
2021/12/06 03:59:18;;;;;;;86.70;31.98;;;;;;;;;;5074263;27;98010;-73
2021/12/06 04:01:47;;;;;;;85.57;31.80;;;;;;;;;;5077940;27;96859;-73
2021/12/06 04:04:14;;;;;;;88.35;33.70;;;;;;;;;;5073655;27;97844;-73
2021/12/06 04:06:40;;;;;;;91.93;32.85;;;;;;;;;;5074020;27;96194;-73
2021/12/06 04:09:08;;;;;;;94.57;33.88;;;;;;;;;;5074508;27;97322;-73
2021/12/06 04:11:35;;;;;;;92.70;32.70;;;;;;;;;;5073504;27;97713;-73
2021/12/06 04:14:02;;;;;;;78.00;30.70;;;;;;;;;;5073582;27;96555;-73
2021/12/06 04:16:28;;;;;;;93.60;33.28;;;;;;;;;;5073586;27;97316;-73
2021/12/06 04:19:00;;;;;;;81.00;30.35;;;;;;;;;;5056944;27;96692;-73
2021/12/06 04:21:27;;;;;;;83.35;29.70;;;;;;;;;;5073139;27;95471;-73
2021/12/06 04:23:53;;;;;;;95.38;32.38;;;;;;;;;;5077101;27;97686;-74
2021/12/06 04:26:20;;;;;;;89.47;31.75;;;;;;;;;;5074341;27;95341;-73
2021/12/06 04:28:58;;;;;;;87.32;31.20;;;;;;;;;;5055340;27;97526;-73
2021/12/06 04:31:25;;;;;;;89.43;30.75;;;;;;;;;;5073859;27;97864;-73
2021/12/06 04:33:51;;;;;;;97.10;33.25;;;;;;;;;;5055016;27;95421;-74
2021/12/06 04:36:35;;;;;;;83.40;31.58;;;;;;;;;;5058130;27;96450;-73
2021/12/06 04:39:03;;;;;;;94.07;32.95;;;;;;;;;;5073985;27;97896;-73
2021/12/06 04:41:30;;;;;;;89.93;32.30;;;;;;;;;;5073539;27;96229;-73
2021/12/06 04:43:56;;;;;;;97.40;34.10;;;;;;;;;;5073303;27;97484;-73
2021/12/06 04:46:23;;;;;;;94.43;31.92;;;;;;;;;;5077246;27;97957;-73
2021/12/06 04:48:49;;;;;;;96.97;32.70;;;;;;;;;;5073700;27;96986;-73
2021/12/06 04:51:16;;;;;;;92.43;33.42;;;;;;;;;;5055864;27;97712;-73
2021/12/06 04:53:42;;;;;;;100.90;31.45;;;;;;;;;;5072769;27;95331;-73
2021/12/06 04:56:15;;;;;;;92.97;34.10;;;;;;;;;;5073149;27;97244;-73
2021/12/06 04:58:51;;;;;;;95.55;32.35;;;;;;;;;;5072600;27;97312;-73
2021/12/06 05:01:19;;;;;;;94.43;33.15;;;;;;;;;;5073861;27;96488;-73
2021/12/06 05:03:47;;;;;;;91.93;32.80;;;;;;;;;;5054185;27;96222;-73
2021/12/06 05:06:16;;;;;;;88.40;33.42;;;;;;;;;;5073260;27;97802;-73
2021/12/06 05:08:45;;;;;;;92.05;32.10;;;;;;;;;;5076587;27;95311;-73
2021/12/06 05:11:12;;;;;;;93.00;32.63;;;;;;;;;;5073046;27;97470;-73
2021/12/06 05:13:40;;;;;;;98.43;31.95;;;;;;;;;;5072890;27;95356;-73
2021/12/06 05:16:06;;;;;;;83.68;31.90;;;;;;;;;;5073204;27;97397;-73
2021/12/06 05:18:33;;;;;;;81.97;32.08;;;;;;;;;;5072738;27;96607;-73
2021/12/06 05:21:00;;;;;;;90.90;33.67;;;;;;;;;;5072768;27;96171;-73
2021/12/06 05:23:27;;;;;;;82.68;31.05;;;;;;;;;;5072906;27;96805;-72
2021/12/06 05:25:54;;;;;;;83.38;31.58;;;;;;;;;;5072116;27;97582;-73
2021/12/06 05:28:27;;;;;;;84.60;32.33;;;;;;;;;;5072000;27;95350;-73
2021/12/06 05:30:56;;;;;;;91.13;32.00;;;;;;;;;;5075643;27;96778;-72
2021/12/06 05:33:30;;;;;;;91.53;32.38;;;;;;;;;;5068035;27;96840;-72
2021/12/06 05:35:59;;;;;;;98.13;33.80;;;;;;;;;;5073091;27;96543;-72
2021/12/06 05:38:27;;;;;;;87.15;32.53;;;;;;;;;;5053999;27;97349;-72
2021/12/06 05:40:54;;;;;;;85.28;32.25;;;;;;;;;;5071581;27;95146;-74
2021/12/06 05:43:20;;;;;;;91.25;34.22;;;;;;;;;;5072252;27;96920;-73
2021/12/06 05:45:46;;;;;;;90.07;33.53;;;;;;;;;;5071445;27;97246;-73
2021/12/06 05:48:13;;;;;;;89.68;33.58;;;;;;;;;;5071366;27;96625;-73
2021/12/06 05:50:39;;;;;;;86.90;33.80;;;;;;;;;;5071612;27;96772;-73
2021/12/06 05:53:06;;;;;;;82.75;32.53;;;;;;;;;;5055479;27;97643;-72
2021/12/06 05:55:32;;;;;;;87.90;32.92;;;;;;;;;;5050912;27;96987;-72
2021/12/06 05:58:02;;;;;;;80.15;32.33;;;;;;;;;;5070131;27;96743;-73
2021/12/06 06:00:31;;;;;;;89.43;33.40;;;;;;;;;;5071936;27;95250;-73
2021/12/06 06:02:58;;;;;;;88.40;33.70;;;;;;;;;;5070050;27;96818;-73
2021/12/06 06:05:25;;;;;;;91.53;34.10;;;;;;;;;;5071173;27;97307;-73
2021/12/06 06:07:51;;;;;;;84.63;33.45;;;;;;;;;;5068604;27;95345;-73
2021/12/06 06:10:18;;;;;;;90.75;34.83;;;;;;;;;;5071886;27;97166;-73
2021/12/06 06:12:44;;;;;;;79.85;33.47;;;;;;;;;;5074871;27;97409;-72
2021/12/06 06:15:11;;;;;;;92.38;34.33;;;;;;;;;;5069504;27;96754;-73
2021/12/06 06:17:42;;;;;;;90.00;35.40;;;;;;;;;;5072392;27;97365;-73
2021/12/06 06:20:26;;;;;;;94.68;35.72;;;;;;;;;;5072348;27;95282;-73
2021/12/06 06:22:53;;;;;;;97.45;33.72;;;;;;;;;;5072802;27;96823;-72
2021/12/06 06:25:20;;;;;;;93.28;34.63;;;;;;;;;;5052987;27;97329;-73
2021/12/06 06:27:47;;;;;;;93.47;35.53;;;;;;;;;;5071176;27;95633;-72
2021/12/06 06:30:13;;;;;;;92.82;34.95;;;;;;;;;;5071425;27;96764;-73
2021/12/06 06:32:40;;;;;;;87.35;34.72;;;;;;;;;;5072640;27;97344;-73
2021/12/06 06:35:07;;;;;;;94.03;35.33;;;;;;;;;;5073936;27;95330;-74
2021/12/06 06:37:33;;;;;;;97.35;35.63;;;;;;;;;;5070816;27;97071;-72
2021/12/06 06:40:00;;;;;;;88.40;34.78;;;;;;;;;;5052263;27;95276;-72
2021/12/06 06:42:27;;;;;;;93.18;35.88;;;;;;;;;;5070257;27;97092;-72
2021/12/06 06:44:54;;;;;;;94.13;36.30;;;;;;;;;;5069459;27;96889;-73
2021/12/06 06:47:21;;;;;;;97.53;35.15;;;;;;;;;;5071046;27;95413;-72
2021/12/06 06:49:47;;;;;;;86.13;34.42;;;;;;;;;;5069262;27;96880;-72
2021/12/06 06:52:18;;;;;;;94.95;35.47;;;;;;;;;;5062068;27;97420;-72
2021/12/06 06:54:45;;;;;;;90.18;34.25;;;;;;;;;;5065665;27;96448;-72
2021/12/06 06:57:13;;;;;;;101.82;41.63;;;;;;;;;;5073409;27;96845;-73
2021/12/06 06:59:45;;;;;;;97.82;36.92;;;;;;;;;;5066229;27;99297;-72
2021/12/06 07:02:13;;;;;;;95.10;35.85;;;;;;;;;;5071963;27;96072;-72
2021/12/06 07:04:41;;;;;;;95.80;35.22;;;;;;;;;;5070066;27;96762;-72
2021/12/06 07:07:09;;;;;;;88.45;35.88;;;;;;;;;;5072525;27;95143;-73
2021/12/06 07:09:42;;;;;;;90.97;35.20;;;;;;;;;;5071284;27;96474;-73
2021/12/06 07:12:17;;;;;;;93.23;34.37;;;;;;;;;;5053871;27;96864;-71
2021/12/06 07:14:47;;;;;;;95.55;34.50;;;;;;;;;;5071387;27;95294;-73
2021/12/06 07:17:16;;;;;;;91.93;35.90;;;;;;;;;;5071638;27;96016;-73
2021/12/06 07:19:44;;;;;;;95.47;35.47;;;;;;;;;;5073855;27;95214;-73
2021/12/06 07:22:12;;;;;;;89.00;35.95;;;;;;;;;;5071824;27;95924;-73
2021/12/06 07:24:39;;;;;;;97.20;36.03;;;;;;;;;;5052347;27;96125;-73
2021/12/06 07:27:06;;;;;;;90.03;37.33;;;;;;;;;;5071831;27;95358;-73
2021/12/06 07:29:33;;;;;;;96.95;37.22;;;;;;;;;;5073861;27;97556;-72
2021/12/06 07:32:01;;;;;;;98.13;36.67;;;;;;;;;;5073095;27;97323;-73
2021/12/06 07:34:27;;;;;;;96.68;35.97;;;;;;;;;;5069805;27;95406;-73
2021/12/06 07:36:53;;;;;;;85.60;32.85;;;;;;;;;;5074724;27;97153;-73
2021/12/06 07:39:20;;;;;;;87.38;35.25;;;;;;;;;;5071534;27;97568;-73
2021/12/06 07:41:49;;;;;;;88.05;33.80;;;;;;;;;;5076577;27;95887;-73
2021/12/06 07:44:16;;;;;;;98.40;37.45;;;;;;;;;;5074463;27;97627;-73
2021/12/06 07:46:42;;;;;;;95.60;35.65;;;;;;;;;;5074827;27;95330;-73
2021/12/06 07:49:09;;;;;;;94.47;37.92;;;;;;;;;;5073989;27;96783;-74
2021/12/06 07:51:36;;;;;;;93.78;36.13;;;;;;;;;;5074044;27;97689;-73
2021/12/06 07:54:02;;;;;;;89.15;35.85;;;;;;;;;;5074567;27;95383;-73
2021/12/06 07:56:29;;;;;;;90.75;35.58;;;;;;;;;;5072592;27;96803;-74
2021/12/06 07:58:55;;;;;;;89.72;34.80;;;;;;;;;;5073680;27;97286;-73
2021/12/06 08:01:22;;;;;;;98.95;36.90;;;;;;;;;;5073781;27;95108;-73
2021/12/06 08:03:48;;;;;;;90.00;36.30;;;;;;;;;;5076748;27;96809;-74
2021/12/06 08:06:15;;;;;;;90.03;35.65;;;;;;;;;;5073556;27;95338;-73
2021/12/06 08:08:43;;;;;;;85.22;35.38;;;;;;;;;;5074658;27;97090;-74
2021/12/06 08:11:12;;;;;;;89.88;35.45;;;;;;;;;;5073697;27;97329;-73
2021/12/06 08:13:40;;;;;;;88.18;35.78;;;;;;;;;;5069641;27;96097;-73
2021/12/06 08:16:08;;;;;;;91.63;35.33;;;;;;;;;;5072811;27;97111;-73
2021/12/06 08:18:35;;;;;;;93.95;36.28;;;;;;;;;;5074383;27;96172;-73
2021/12/06 08:21:02;;;;;;;94.05;36.65;;;;;;;;;;5073013;27;95191;-73
2021/12/06 08:23:28;;;;;;;87.53;37.15;;;;;;;;;;5077252;27;97175;-73
2021/12/06 08:25:55;;;;;;;98.50;37.63;;;;;;;;;;5073952;27;95175;-73
2021/12/06 08:28:23;;;;;;;97.70;36.42;;;;;;;;;;5072800;27;96837;-73
2021/12/06 08:30:51;;;;;;;100.00;36.92;;;;;;;;;;5072019;27;97321;-73
2021/12/06 08:33:17;;;;;;;85.07;36.72;;;;;;;;;;5073805;27;95073;-73
2021/12/06 08:35:45;;;;;;;83.00;35.72;;;;;;;;;;5072278;27;96897;-72
2021/12/06 08:38:13;;;;;;;77.97;33.58;;;;;;;;;;5064328;27;97445;-72
2021/12/06 08:40:40;;;;;;;88.72;36.13;;;;;;;;;;5074479;27;95175;-72
2021/12/06 08:43:07;;;;;;;94.90;37.08;;;;;;;;;;5072661;27;96871;-80
2021/12/06 08:45:34;;;;;;;86.20;34.08;;;;;;;;;;5075450;27;96132;-73
2021/12/06 08:48:01;;;;;;;89.93;37.35;;;;;;;;;;5073389;27;96964;-75
2021/12/06 08:50:29;;;;;;;95.30;36.92;;;;;;;;;;5072855;27;97633;-72
2021/12/06 08:52:55;;;;;;;93.18;36.97;;;;;;;;;;5072864;27;96618;-70
2021/12/06 08:55:22;;;;;;;99.63;37.75;;;;;;;;;;5072719;27;96472;-72
2021/12/06 08:57:50;;;;;;;90.40;37.17;;;;;;;;;;5053968;27;96762;-73
2021/12/06 09:00:19;;;;;;;94.65;37.10;;;;;;;;;;5072623;27;96236;-73
2021/12/06 09:02:45;;;;;;;92.55;37.70;;;;;;;;;;5072687;27;96867;-73
2021/12/06 09:05:22;;;;;;;104.50;39.45;;;;;;;;;;5073353;27;97434;-72
2021/12/06 09:07:49;;;;;;;102.00;39.63;;;;;;;;;;5075428;27;96824;-72
2021/12/06 09:10:15;;;;;;;99.90;39.55;;;;;;;;;;5073218;27;97414;-72
2021/12/06 09:12:41;;;;;;;92.00;37.80;;;;;;;;;;5072638;27;95362;-73
2021/12/06 09:15:10;;;;;;;87.88;35.88;;;;;;;;;;5071221;27;96857;-73
2021/12/06 09:17:37;;;;;;;90.40;36.33;;;;;;;;;;5071744;27;97317;-77
2021/12/06 09:20:06;;;;;;;85.15;35.45;;;;;;;;;;5070863;27;95434;-72
2021/12/06 09:22:32;;;;;;;84.78;34.85;;;;;;;;;;5071095;27;97339;-72
2021/12/06 09:24:58;;;;;;;84.63;34.92;;;;;;;;;;5069375;27;97494;-73
2021/12/06 09:27:25;;;;;;;89.10;36.38;;;;;;;;;;5071777;27;96668;-72
2021/12/06 09:29:51;;;;;;;82.68;37.45;;;;;;;;;;5074783;27;97315;-73
2021/12/06 09:32:17;;;;;;;89.18;36.85;;;;;;;;;;5060697;27;96491;-73
2021/12/06 09:34:46;;;;;;;90.45;37.72;;;;;;;;;;5071784;27;96880;-74
2021/12/06 09:37:12;;;;;;;116.95;38.53;;;;;;;;;;5068421;27;96946;-72
2021/12/06 09:39:39;;;;;;;89.53;36.67;;;;;;;;;;5043967;27;96552;-72
2021/12/06 09:42:06;;;;;;;105.30;35.88;;;;;;;;;;5070164;27;95903;-72
2021/12/06 09:44:32;;;;;;;91.05;36.97;;;;;;;;;;5071725;27;97438;-72
2021/12/06 09:46:59;;;;;;;94.22;37.25;;;;;;;;;;5071558;27;95378;-72
2021/12/06 09:49:26;;;;;;;94.55;37.78;;;;;;;;;;5069679;27;96802;-72
2021/12/06 09:51:54;;;;;;;100.82;38.20;;;;;;;;;;5055084;27;97348;-73
2021/12/06 09:54:22;;;;;;;97.18;38.13;;;;;;;;;;5071140;27;97137;-72
2021/12/06 09:56:50;;;;;;;114.00;38.05;;;;;;;;;;5071222;27;97350;-73
2021/12/06 09:59:18;;;;;;;115.43;39.42;;;;;;;;;;5052676;27;96139;-75
2021/12/06 10:01:48;;;;;;;117.13;40.17;;;;;;;;;;5070731;27;98010;-74
2021/12/06 10:04:16;;;;;;;110.07;38.30;;;;;;;;;;5071106;27;97312;-74
2021/12/06 10:06:43;;;;;;;103.20;38.60;;;;;;;;;;5052313;27;95364;-72
2021/12/06 10:09:10;;;;;;;110.30;38.85;;;;;;;;;;5071312;27;96825;-75
2021/12/06 10:11:37;;;;;;;140.77;42.03;;;;;;;;;;5061577;27;97207;-74
2021/12/06 10:14:04;;;;;;;136.75;41.47;;;;;;;;;;5070664;27;95114;-74
2021/12/06 10:16:31;;;;;;;131.48;43.92;;;;;;;;;;5071466;27;97508;-73
2021/12/06 10:18:59;;;;;;;134.07;43.10;;;;;;;;;;5068421;27;97111;-75
2021/12/06 10:21:29;;;;;;;129.40;41.80;;;;;;;;;;5068853;27;96891;-75
2021/12/06 10:24:02;;;;;;;112.05;41.78;;;;;;;;;;5069783;27;97154;-74
2021/12/06 10:26:30;;;;;;;123.80;43.03;;;;;;;;;;5070848;27;95483;-75
2021/12/06 10:29:07;;;;;;;121.43;40.70;;;;;;;;;;5069323;27;98700;-73
2021/12/06 10:31:33;;;;;;;139.60;43.70;;;;;;;;;;5070913;27;97401;-73
2021/12/06 10:34:03;;;;;;;133.00;43.83;;;;;;;;;;5073363;27;95433;-77
2021/12/06 10:36:29;;;;;;;129.98;42.85;;;;;;;;;;5051719;27;98042;-74
2021/12/06 10:39:04;;;;;;;146.38;43.83;;;;;;;;;;5069605;27;95935;-75
2021/12/06 10:41:31;;;;;;;130.63;42.45;;;;;;;;;;5070640;27;96529;-73
2021/12/06 10:43:59;;;;;;;122.70;40.70;;;;;;;;;;5071200;27;97478;-74
2021/12/06 10:46:26;;;;;;;113.63;40.72;;;;;;;;;;5069375;27;95419;-73
2021/12/06 10:48:58;;;;;;;129.60;42.50;;;;;;;;;;5067414;27;96822;-73
2021/12/06 10:51:25;;;;;;;132.48;42.00;;;;;;;;;;5068111;27;97303;-73
2021/12/06 10:54:07;;;;;;;143.32;42.65;;;;;;;;;;5070173;27;96653;-73
2021/12/06 10:56:41;;;;;;;142.05;42.03;;;;;;;;;;5066206;27;95819;-73
2021/12/06 10:59:13;;;;;;;131.18;43.00;;;;;;;;;;5068644;27;95425;-73
2021/12/06 11:01:39;;;;;;;129.45;41.95;;;;;;;;;;5068167;27;96744;-74
2021/12/06 11:04:07;;;;;;;135.32;41.83;;;;;;;;;;5066801;27;97425;-73
2021/12/06 11:06:42;;;;;;;151.75;44.20;;;;;;;;;;5067846;27;96630;-74
2021/12/06 11:09:12;;;;;;;136.95;41.28;;;;;;;;;;5067193;27;96862;-73
2021/12/06 11:11:40;;;;;;;141.85;42.00;;;;;;;;;;5068578;27;97270;-73
2021/12/06 11:14:14;;;;;;;149.30;42.55;;;;;;;;;;5058031;27;95268;-74
2021/12/06 11:16:43;;;;;;;168.85;43.33;;;;;;;;;;5068185;27;96028;-73
2021/12/06 11:19:11;;;;;;;149.18;42.22;;;;;;;;;;5067553;27;97286;-73
2021/12/06 11:21:39;;;;;;;143.52;41.95;;;;;;;;;;5064626;27;96143;-73
2021/12/06 11:24:05;;;;;;;148.60;43.40;;;;;;;;;;5066099;27;97595;-72
2021/12/06 11:26:33;;;;;;;140.25;41.13;;;;;;;;;;5067122;27;97230;-74
2021/12/06 11:29:08;;;;;;;141.85;41.75;;;;;;;;;;5062240;27;96836;-73
2021/12/06 11:31:35;;;;;;;134.20;38.05;;;;;;;;;;5067088;27;96307;-74
2021/12/06 11:34:03;;;;;;;117.63;37.95;;;;;;;;;;5063927;27;95199;-73
2021/12/06 11:36:33;;;;;;;115.95;38.72;;;;;;;;;;5063381;27;97728;-73
2021/12/06 11:39:15;;;;;;;127.20;38.47;;;;;;;;;;5068326;27;97031;-73
2021/12/06 11:41:43;;;;;;;117.67;35.87;;;;;;;;;;5070334;27;95395;-73
2021/12/06 11:44:13;;;;;;;120.65;37.85;;;;;;;;;;5062632;27;96515;-72
2021/12/06 11:46:39;;;;;;;108.53;37.58;;;;;;;;;;5069145;27;95105;-73
2021/12/06 11:49:16;;;;;;;99.13;35.47;;;;;;;;;;5068641;27;97171;-73
2021/12/06 11:51:43;;;;;;;90.63;33.47;;;;;;;;;;5066939;27;97321;-74
2021/12/06 11:54:09;;;;;;;99.32;33.70;;;;;;;;;;5057320;27;95516;-72
2021/12/06 11:56:44;;;;;;;85.25;32.05;;;;;;;;;;5060608;27;96840;-73
2021/12/06 11:59:12;;;;;;;90.13;31.95;;;;;;;;;;5069928;27;97467;-73
2021/12/06 12:01:41;;;;;;;75.53;29.33;;;;;;;;;;5068046;27;96528;-73
2021/12/06 12:04:12;;;;;;;70.10;29.10;;;;;;;;;;5069900;27;95885;-73
2021/12/06 12:06:46;;;;;;;70.85;28.45;;;;;;;;;;5043760;27;95569;-73
2021/12/06 12:09:14;;;;;;;74.53;28.30;;;;;;;;;;5066246;27;96810;-74
2021/12/06 12:12:02;;;;;;;69.57;27.90;;;;;;;;;;5061225;27;97353;-74
2021/12/06 12:14:40;;;;;;;68.97;26.98;;;;;;;;;;5070434;27;95255;-74
2021/12/06 12:17:12;;;;;;;69.13;26.63;;;;;;;;;;5067222;27;97120;-73
2021/12/06 12:19:41;;;;;;;71.20;27.02;;;;;;;;;;5069630;27;96606;-73
2021/12/06 12:22:08;;;;;;;65.82;25.80;;;;;;;;;;5063730;27;96731;-73
2021/12/06 12:24:36;;;;;;;61.95;25.42;;;;;;;;;;5072151;27;96645;-73
2021/12/06 12:27:20;;;;;;;65.30;28.02;;;;;;;;;;5072742;27;95678;-74
2021/12/06 12:59:50;;;;;;;56.67;21.90;;;;;;;;;;4955781;27;1312657;-71
2021/12/06 13:02:20;;;;;;;62.28;23.38;;;;;;;;;;4975980;28;97771;-71
2021/12/06 13:05:13;;;;;;;49.35;20.55;;;;;;;;;;4971893;28;97133;-72
2021/12/06 13:07:39;;;;;;;56.60;21.67;;;;;;;;;;4974692;28;97082;-73
2021/12/06 13:10:24;;;;;;;56.22;22.02;;;;;;;;;;4974131;28;97530;-73
2021/12/06 13:12:54;;;;;;;55.03;21.58;;;;;;;;;;4978331;28;95424;-73
2021/12/06 13:15:22;;;;;;;61.50;22.27;;;;;;;;;;4974298;28;96724;-72
2021/12/06 13:17:50;;;;;;;69.22;23.55;;;;;;;;;;4977244;28;97722;-72
2021/12/06 13:20:25;;;;;;;74.88;24.83;;;;;;;;;;4981321;28;95155;-71
2021/12/06 13:22:54;;;;;;;70.13;24.70;;;;;;;;;;4974466;28;97232;-71
2021/12/06 13:25:22;;;;;;;69.45;24.98;;;;;;;;;;4974664;28;95825;-72
2021/12/06 13:27:51;;;;;;;68.28;24.20;;;;;;;;;;4981252;28;96838;-73
2021/12/06 13:30:23;;;;;;;61.55;23.02;;;;;;;;;;4974755;28;97780;-72
2021/12/06 13:32:53;;;;;;;67.13;24.17;;;;;;;;;;4977082;28;95337;-72
2021/12/06 13:35:22;;;;;;;61.13;23.67;;;;;;;;;;4967026;28;97098;-72
2021/12/06 13:37:59;;;;;;;63.15;22.40;;;;;;;;;;4975002;28;97578;-72
2021/12/06 13:40:26;;;;;;;64.57;23.55;;;;;;;;;;4975610;28;95262;-72
2021/12/06 13:42:52;;;;;;;65.20;23.30;;;;;;;;;;4979430;28;96888;-72
2021/12/06 13:45:20;;;;;;;71.32;23.70;;;;;;;;;;4973208;28;95499;-72
2021/12/06 13:47:48;;;;;;;63.55;23.90;;;;;;;;;;4970919;28;96859;-72
2021/12/06 13:50:16;;;;;;;59.65;23.10;;;;;;;;;;4960498;28;97339;-72
2021/12/06 13:52:42;;;;;;;60.50;22.75;;;;;;;;;;4976452;28;96439;-71
2021/12/06 15:58:34;;;;;;;64.38;23.60;;;;;;;;;;5038300;27;95269;-71
2021/12/06 16:01:04;;;;;;;65.95;23.80;;;;;;;;;;5025823;27;97499;-72
2021/12/06 16:03:35;;;;;;;66.43;26.02;;;;;;;;;;5026182;27;95406;-72
2021/12/06 16:06:04;;;;;;;59.90;24.05;;;;;;;;;;5024426;28;96766;-72
2021/12/06 16:08:41;;;;;;;63.33;24.67;;;;;;;;;;5026138;28;97402;-75
2021/12/06 16:11:09;;;;;;;59.38;24.38;;;;;;;;;;5013498;28;95905;-72
2021/12/06 16:13:38;;;;;;;61.90;24.38;;;;;;;;;;5020381;28;96857;-72
2021/12/06 16:16:06;;;;;;;61.90;22.95;;;;;;;;;;5023844;28;97671;-72
2021/12/06 16:18:34;;;;;;;62.20;24.33;;;;;;;;;;5024270;27;95397;-72
2021/12/06 16:21:30;;;;;;;65.70;25.08;;;;;;;;;;5027269;27;96180;-72
2021/12/06 16:23:57;;;;;;;60.00;24.65;;;;;;;;;;5026601;28;96548;-72
2021/12/06 16:26:29;;;;;;;55.55;23.42;;;;;;;;;;5026639;28;96792;-72
2021/12/06 16:29:00;;;;;;;58.90;22.40;;;;;;;;;;5024686;28;97588;-72
2021/12/06 16:31:31;;;;;;;58.25;23.80;;;;;;;;;;5020928;28;95251;-72
2021/12/06 16:33:59;;;;;;;59.08;24.50;;;;;;;;;;5014983;27;97042;-72
2021/12/06 16:36:29;;;;;;;56.08;22.90;;;;;;;;;;5026190;28;97379;-72
2021/12/06 16:39:07;;;;;;;54.40;22.70;;;;;;;;;;5025556;28;96229;-72
2021/12/06 16:41:50;;;;;;;47.88;21.23;;;;;;;;;;5025443;28;96914;-72
2021/12/06 16:44:20;;;;;;;51.95;21.75;;;;;;;;;;5023725;28;96838;-72
2021/12/06 16:46:48;;;;;;;44.88;20.48;;;;;;;;;;5026159;28;97148;-72
2021/12/06 16:49:29;;;;;;;41.03;20.25;;;;;;;;;;5026495;28;97424;-72
2021/12/06 16:52:08;;;;;;;45.72;21.75;;;;;;;;;;5027391;28;95311;-72
2021/12/06 16:54:35;;;;;;;40.63;19.17;;;;;;;;;;5026159;28;96420;-73
2021/12/06 16:57:03;;;;;;;43.13;19.13;;;;;;;;;;5025156;28;97321;-72
2021/12/06 16:59:33;;;;;;;39.92;18.20;;;;;;;;;;5027588;27;95410;-72
2021/12/06 17:02:04;;;;;;;36.22;18.88;;;;;;;;;;5026783;28;96812;-72
2021/12/06 17:04:38;;;;;;;34.20;17.57;;;;;;;;;;5028956;27;97461;-72
2021/12/06 17:07:20;;;;;;;38.65;18.50;;;;;;;;;;5025678;28;96181;-72
2021/12/06 17:09:46;;;;;;;38.35;17.80;;;;;;;;;;5014287;28;97639;-73
2021/12/06 17:12:13;;;;;;;45.50;20.95;;;;;;;;;;5010673;28;95119;-70
2021/12/06 17:14:39;;;;;;;35.78;17.08;;;;;;;;;;5012076;28;95796;-70